createdAt,value
2017-12-22T00:04:32.131Z,5.81
2017-12-22T00:10:35.653Z,5.89
2017-12-22T00:16:39.200Z,5.86
2017-12-22T00:22:42.678Z,5.72
2017-12-22T00:28:46.172Z,5.78
2017-12-22T00:34:49.640Z,5.84
2017-12-22T00:40:53.467Z,5.81
2017-12-22T00:46:57.757Z,5.82
2017-12-22T00:53:01.404Z,5.76
2017-12-22T00:59:05.694Z,5.80
2017-12-22T01:05:10.067Z,5.91
2017-12-22T01:11:14.034Z,5.99
2017-12-22T01:17:24.273Z,6.02
2017-12-22T01:23:27.897Z,6.01
2017-12-22T01:29:31.375Z,6.03
2017-12-22T01:35:34.862Z,6.12
2017-12-22T01:41:39.142Z,6.10
2017-12-22T01:47:42.754Z,6.10
2017-12-22T01:53:46.413Z,6.12
2017-12-22T01:59:49.881Z,6.10
2017-12-22T02:05:53.979Z,5.96
2017-12-22T02:11:57.516Z,5.92
2017-12-22T02:18:01.064Z,5.95
2017-12-22T02:24:04.549Z,6.02
2017-12-22T02:30:08.056Z,6.06
2017-12-22T02:36:11.795Z,6.05
2017-12-22T02:42:15.271Z,5.69
2017-12-22T02:48:18.748Z,5.55
2017-12-22T02:54:22.356Z,5.67
2017-12-22T03:00:26.315Z,5.69
2017-12-22T03:06:30.570Z,5.79
2017-12-22T03:12:34.866Z,5.85
2017-12-22T03:18:38.376Z,5.91
2017-12-22T03:24:42.094Z,6.05
2017-12-22T03:30:45.593Z,5.97
2017-12-22T03:36:49.091Z,6.07
2017-12-22T03:42:52.998Z,6.09
2017-12-22T03:48:56.810Z,6.15
2017-12-22T03:55:00.305Z,6.27
2017-12-22T04:01:03.787Z,6.25
2017-12-22T04:07:07.278Z,6.05
2017-12-22T04:13:10.778Z,5.91
2017-12-22T04:19:14.271Z,5.80
2017-12-22T04:25:18.550Z,5.77
2017-12-22T04:31:22.162Z,5.73
2017-12-22T04:37:25.684Z,5.67
2017-12-22T04:43:29.232Z,5.65
2017-12-22T04:49:32.783Z,5.75
2017-12-22T04:55:36.310Z,5.88
2017-12-22T05:01:39.795Z,5.96
2017-12-22T05:07:43.284Z,5.92
2017-12-22T05:13:46.846Z,5.89
2017-12-22T05:19:50.396Z,5.89
2017-12-22T05:25:54.313Z,5.98
2017-12-22T05:31:57.801Z,5.98
2017-12-22T05:38:01.522Z,6.01
2017-12-22T05:44:05.007Z,6.02
2017-12-22T05:50:08.495Z,5.95
2017-12-22T05:56:12.003Z,5.80
2017-12-22T06:02:15.516Z,5.54
2017-12-22T06:08:19.031Z,5.54
2017-12-22T06:14:22.952Z,5.44
2017-12-22T06:20:26.463Z,5.48
2017-12-22T06:26:29.952Z,5.31
2017-12-22T06:32:34.192Z,5.29
2017-12-22T06:38:37.730Z,5.18
2017-12-22T06:44:41.235Z,5.03
2017-12-22T06:50:45.486Z,4.87
2017-12-22T06:56:48.965Z,4.77
2017-12-22T07:02:52.725Z,4.62
2017-12-22T07:08:56.299Z,4.47
2017-12-22T07:14:59.808Z,4.35
2017-12-22T07:21:03.315Z,4.44
2017-12-22T07:27:06.804Z,4.28
2017-12-22T07:33:10.288Z,4.22
2017-12-22T07:39:14.534Z,4.33
2017-12-22T07:45:18.033Z,4.55
2017-12-22T07:51:21.630Z,4.68
2017-12-22T07:57:25.100Z,4.76
2017-12-22T08:03:28.606Z,4.83
2017-12-22T08:09:32.104Z,4.92
2017-12-22T08:15:35.621Z,4.88
2017-12-22T08:21:39.122Z,4.90
2017-12-22T08:27:42.649Z,5.11
2017-12-22T08:33:46.164Z,5.42
2017-12-22T08:39:49.903Z,5.47
2017-12-22T08:45:54.176Z,5.59
2017-12-22T08:51:58.722Z,5.67
2017-12-22T08:58:02.191Z,5.70
2017-12-22T09:04:05.694Z,5.85
2017-12-22T09:10:09.231Z,6.14
2017-12-22T09:16:12.693Z,6.45
2017-12-22T09:22:16.486Z,6.54
2017-12-22T09:28:20.348Z,6.65
2017-12-22T09:34:24.210Z,6.77
2017-12-22T09:40:27.874Z,6.76
2017-12-22T09:46:31.382Z,6.83
2017-12-22T09:52:34.957Z,6.94
2017-12-22T09:58:38.445Z,7.04
2017-12-22T10:04:41.939Z,6.97
2017-12-22T10:10:46.225Z,6.92
2017-12-22T10:16:49.742Z,6.86
2017-12-22T10:22:53.897Z,6.89
2017-12-22T10:28:57.394Z,6.94
2017-12-22T10:35:01.654Z,6.93
2017-12-22T10:41:05.904Z,7.09
2017-12-22T10:47:09.422Z,7.06
2017-12-22T10:53:12.935Z,6.66
2017-12-22T10:59:17.183Z,6.74
2017-12-22T11:05:20.793Z,7.08
2017-12-22T11:11:24.524Z,7.33
2017-12-22T11:17:28.822Z,7.79
2017-12-22T11:23:32.334Z,7.94
2017-12-22T11:29:35.842Z,7.65
2017-12-22T11:35:39.386Z,7.48
2017-12-22T11:41:43.639Z,7.44
2017-12-22T11:47:47.099Z,7.62
2017-12-22T11:53:50.643Z,7.74
2017-12-22T11:59:54.526Z,7.70
2017-12-22T12:05:58.144Z,7.51
2017-12-22T12:12:01.631Z,7.44
2017-12-22T12:18:05.099Z,7.22
2017-12-22T12:24:08.648Z,7.33
2017-12-22T12:30:12.173Z,7.46
2017-12-22T12:36:16.438Z,7.40
2017-12-22T12:42:20.757Z,7.38
2017-12-22T12:48:25.581Z,7.40
2017-12-22T12:54:29.055Z,7.33
2017-12-22T13:00:33.360Z,7.32
2017-12-22T13:06:36.842Z,7.42
2017-12-22T13:12:40.319Z,7.37
2017-12-22T13:18:43.815Z,7.29
2017-12-22T13:24:47.362Z,7.16
2017-12-22T13:30:51.863Z,7.13
2017-12-22T13:36:55.574Z,7.11
2017-12-22T13:42:59.922Z,7.06
2017-12-22T13:49:03.426Z,7.13
2017-12-22T13:55:07.690Z,7.13
2017-12-22T14:01:12.023Z,7.15
2017-12-22T14:07:15.513Z,7.12
2017-12-22T14:13:19.077Z,7.18
2017-12-22T14:19:22.779Z,7.16
2017-12-22T14:25:27.048Z,7.10
2017-12-22T14:31:30.518Z,7.14
2017-12-22T14:37:34.005Z,7.05
2017-12-22T14:43:38.305Z,7.01
2017-12-22T14:49:41.788Z,7.00
2017-12-22T14:55:45.461Z,7.05
2017-12-22T15:01:49.045Z,7.00
2017-12-22T15:07:53.428Z,6.96
2017-12-22T15:13:56.946Z,6.90
2017-12-22T15:20:00.580Z,6.85
2017-12-22T15:26:04.097Z,6.84
2017-12-22T15:32:08.365Z,6.87
2017-12-22T15:38:11.978Z,6.83
2017-12-22T15:44:15.476Z,6.80
2017-12-22T15:50:19.726Z,6.78
2017-12-22T15:56:24.173Z,6.75
2017-12-22T16:02:27.812Z,6.68
2017-12-22T16:08:31.313Z,6.54
2017-12-22T16:14:34.806Z,6.54
2017-12-22T16:20:38.277Z,6.73
2017-12-22T16:26:41.812Z,6.79
2017-12-22T16:32:45.288Z,6.83
2017-12-22T16:38:48.757Z,6.78
2017-12-22T16:44:52.287Z,6.75
2017-12-22T16:50:55.847Z,6.68
2017-12-22T16:56:59.425Z,6.67
2017-12-22T17:03:02.940Z,6.62
2017-12-22T17:09:06.454Z,6.64
2017-12-22T17:15:10.047Z,6.55
2017-12-22T17:21:13.530Z,6.52
2017-12-22T17:27:17.029Z,6.40
2017-12-22T17:33:20.539Z,6.27
2017-12-22T17:39:24.125Z,6.25
2017-12-22T17:45:27.791Z,6.14
2017-12-22T17:51:32.849Z,6.13
2017-12-22T17:57:36.313Z,6.05
2017-12-22T18:03:39.961Z,6.04
2017-12-22T18:09:43.505Z,6.08
2017-12-22T18:15:46.999Z,6.11
2017-12-22T18:21:50.542Z,5.99
2017-12-22T18:27:54.258Z,5.89
2017-12-22T18:33:57.743Z,5.93
2017-12-22T18:40:01.249Z,5.93
2017-12-22T18:46:05.534Z,5.96
2017-12-22T18:52:09.054Z,6.01
2017-12-22T18:58:12.627Z,6.01
2017-12-22T19:04:16.953Z,5.97
2017-12-22T19:10:20.594Z,5.87
2017-12-22T19:16:24.157Z,5.82
2017-12-22T19:22:28.430Z,5.82
2017-12-22T19:28:31.940Z,5.85
2017-12-22T19:34:36.186Z,5.89
2017-12-22T19:40:39.651Z,5.85
2017-12-22T19:46:43.177Z,5.84
2017-12-22T19:52:47.046Z,5.82
2017-12-22T19:58:50.582Z,5.85
2017-12-22T20:04:54.786Z,5.91
2017-12-22T20:10:58.345Z,5.94
2017-12-22T20:17:01.833Z,6.02
2017-12-22T20:23:05.329Z,6.06
2017-12-22T20:29:08.791Z,6.09
2017-12-22T20:35:13.084Z,6.09
2017-12-22T20:41:17.365Z,6.12
2017-12-22T20:47:20.915Z,6.09
2017-12-22T20:53:25.180Z,6.11
2017-12-22T20:59:28.669Z,6.13
2017-12-22T21:05:32.159Z,6.05
2017-12-22T21:11:35.877Z,6.02
2017-12-22T21:17:39.344Z,6.05
2017-12-22T21:23:42.827Z,6.06
2017-12-22T21:29:46.354Z,5.96
2017-12-22T21:35:49.862Z,6.00
2017-12-22T21:41:53.423Z,5.93
2017-12-22T21:47:57.679Z,5.98
2017-12-22T21:54:01.267Z,6.05
2017-12-22T22:00:05.562Z,6.07
2017-12-22T22:06:09.248Z,6.06
2017-12-22T22:12:12.771Z,6.03
2017-12-22T22:18:16.371Z,6.08
2017-12-22T22:24:19.866Z,5.99
2017-12-22T22:30:24.570Z,5.89
2017-12-22T22:36:28.148Z,5.86
2017-12-22T22:42:31.622Z,5.87
2017-12-22T22:48:35.126Z,5.81
2017-12-22T22:54:38.616Z,5.80
2017-12-22T23:00:42.109Z,5.78
2017-12-22T23:06:46.387Z,5.84
2017-12-22T23:12:50.872Z,5.99
2017-12-22T23:18:54.774Z,6.00
2017-12-22T23:24:58.336Z,5.95
2017-12-22T23:31:01.921Z,5.94
2017-12-22T23:37:05.410Z,5.92
2017-12-22T23:43:08.926Z,5.88
2017-12-22T23:49:13.199Z,5.77
2017-12-22T23:55:16.802Z,5.58
